<?xml version="1.0" encoding="utf-8"?>
<gpx xmlns:xsi="http://www.w3.org/2001/XMLSchema-instance" xmlns:xsd="http://www.w3.org/2001/XMLSchema" version="1.1" creator="Shapelink.com" xmlns="http://www.topografix.com/GPX/1/1" xmlns:gpxtpx="http://www.garmin.com/xmlschemas/TrackPointExtension/v1">
  <metadata>
    <name>Cykling - CX 2.15 km, 2014-03-27</name>
    <desc></desc>
    <author><name>Alexander Engvall</name></author> 
    <time>2014-03-27T08:59:08Z</time>
  </metadata>
  <trk>
    <name>Cykling - CX 2.15 km, 2014-03-27</name>
    <trkseg>
      <trkpt lat="59.238131" lon="17.946412">
        <ele>44.9</ele>
        <time>2014-03-27T08:59:08Z</time>
      </trkpt>
      <trkpt lat="59.238133" lon="17.94641">
        <ele>44.9</ele>
        <time>2014-03-27T08:59:09Z</time>
      </trkpt>
      <trkpt lat="59.238175" lon="17.946464">
        <ele>45.1</ele>
        <time>2014-03-27T08:59:11Z</time>
      </trkpt>
      <trkpt lat="59.238294" lon="17.946702">
        <ele>45.5</ele>
        <time>2014-03-27T08:59:15Z</time>
      </trkpt>
      <trkpt lat="59.238321" lon="17.946759">
        <ele>45.6</ele>
        <time>2014-03-27T08:59:16Z</time>
      </trkpt>
      <trkpt lat="59.238402" lon="17.946974">
        <ele>46</ele>
        <time>2014-03-27T08:59:19Z</time>
      </trkpt>
      <trkpt lat="59.238449" lon="17.947131">
        <ele>46.2</ele>
        <time>2014-03-27T08:59:21Z</time>
      </trkpt>
      <trkpt lat="59.238555" lon="17.94741">
        <ele>46.4</ele>
        <time>2014-03-27T08:59:24Z</time>
      </trkpt>
      <trkpt lat="59.238628" lon="17.947609">
        <ele>46.4</ele>
        <time>2014-03-27T08:59:26Z</time>
      </trkpt>
      <trkpt lat="59.238683" lon="17.947835">
        <ele>46.1</ele>
        <time>2014-03-27T08:59:28Z</time>
      </trkpt>
      <trkpt lat="59.238712" lon="17.948059">
        <ele>45.6</ele>
        <time>2014-03-27T08:59:30Z</time>
      </trkpt>
      <trkpt lat="59.238729" lon="17.948285">
        <ele>45.1</ele>
        <time>2014-03-27T08:59:32Z</time>
      </trkpt>
      <trkpt lat="59.238762" lon="17.948605">
        <ele>44.4</ele>
        <time>2014-03-27T08:59:35Z</time>
      </trkpt>
      <trkpt lat="59.23878" lon="17.948719">
        <ele>44.3</ele>
        <time>2014-03-27T08:59:36Z</time>
      </trkpt>
      <trkpt lat="59.238837" lon="17.948926">
        <ele>44.6</ele>
        <time>2014-03-27T08:59:38Z</time>
      </trkpt>
      <trkpt lat="59.238906" lon="17.949145">
        <ele>44.9</ele>
        <time>2014-03-27T08:59:40Z</time>
      </trkpt>
      <trkpt lat="59.238948" lon="17.949368">
        <ele>45.1</ele>
        <time>2014-03-27T08:59:42Z</time>
      </trkpt>
      <trkpt lat="59.238966" lon="17.949461">
        <ele>45.1</ele>
        <time>2014-03-27T08:59:43Z</time>
      </trkpt>
      <trkpt lat="59.23898" lon="17.949581">
        <ele>45.1</ele>
        <time>2014-03-27T08:59:44Z</time>
      </trkpt>
      <trkpt lat="59.238997" lon="17.949704">
        <ele>45.1</ele>
        <time>2014-03-27T08:59:45Z</time>
      </trkpt>
      <trkpt lat="59.239018" lon="17.949838">
        <ele>45.1</ele>
        <time>2014-03-27T08:59:46Z</time>
      </trkpt>
      <trkpt lat="59.239061" lon="17.950198">
        <ele>44.9</ele>
        <time>2014-03-27T08:59:49Z</time>
      </trkpt>
      <trkpt lat="59.239074" lon="17.950406">
        <ele>44.8</ele>
        <time>2014-03-27T08:59:51Z</time>
      </trkpt>
      <trkpt lat="59.239084" lon="17.950522">
        <ele>44.9</ele>
        <time>2014-03-27T08:59:52Z</time>
      </trkpt>
      <trkpt lat="59.239093" lon="17.950634">
        <ele>45</ele>
        <time>2014-03-27T08:59:53Z</time>
      </trkpt>
      <trkpt lat="59.239107" lon="17.950752">
        <ele>45.1</ele>
        <time>2014-03-27T08:59:54Z</time>
      </trkpt>
      <trkpt lat="59.239118" lon="17.950877">
        <ele>45.2</ele>
        <time>2014-03-27T08:59:55Z</time>
      </trkpt>
      <trkpt lat="59.239169" lon="17.951246">
        <ele>45.5</ele>
        <time>2014-03-27T08:59:58Z</time>
      </trkpt>
      <trkpt lat="59.239205" lon="17.951497">
        <ele>45.5</ele>
        <time>2014-03-27T09:00:00Z</time>
      </trkpt>
      <trkpt lat="59.239355" lon="17.95232">
        <ele>45.8</ele>
        <time>2014-03-27T09:00:07Z</time>
      </trkpt>
      <trkpt lat="59.239388" lon="17.95239">
        <ele>45.9</ele>
        <time>2014-03-27T09:00:08Z</time>
      </trkpt>
      <trkpt lat="59.239492" lon="17.952437">
        <ele>45.9</ele>
        <time>2014-03-27T09:00:10Z</time>
      </trkpt>
      <trkpt lat="59.239685" lon="17.952365">
        <ele>46</ele>
        <time>2014-03-27T09:00:13Z</time>
      </trkpt>
      <trkpt lat="59.239809" lon="17.952341">
        <ele>46.4</ele>
        <time>2014-03-27T09:00:15Z</time>
      </trkpt>
      <trkpt lat="59.239921" lon="17.952445">
        <ele>46.8</ele>
        <time>2014-03-27T09:00:17Z</time>
      </trkpt>
      <trkpt lat="59.240023" lon="17.95275">
        <ele>47</ele>
        <time>2014-03-27T09:00:20Z</time>
      </trkpt>
      <trkpt lat="59.240057" lon="17.95285">
        <ele>47</ele>
        <time>2014-03-27T09:00:21Z</time>
      </trkpt>
      <trkpt lat="59.240224" lon="17.953414">
        <ele>45.9</ele>
        <time>2014-03-27T09:00:26Z</time>
      </trkpt>
      <trkpt lat="59.240413" lon="17.954055">
        <ele>44</ele>
        <time>2014-03-27T09:00:32Z</time>
      </trkpt>
      <trkpt lat="59.240651" lon="17.9549">
        <ele>44.8</ele>
        <time>2014-03-27T09:00:40Z</time>
      </trkpt>
      <trkpt lat="59.240834" lon="17.955646">
        <ele>45.9</ele>
        <time>2014-03-27T09:00:47Z</time>
      </trkpt>
      <trkpt lat="59.240853" lon="17.955768">
        <ele>46.1</ele>
        <time>2014-03-27T09:00:48Z</time>
      </trkpt>
      <trkpt lat="59.240924" lon="17.956391">
        <ele>47</ele>
        <time>2014-03-27T09:00:54Z</time>
      </trkpt>
      <trkpt lat="59.240974" lon="17.957151">
        <ele>47.7</ele>
        <time>2014-03-27T09:01:01Z</time>
      </trkpt>
      <trkpt lat="59.241049" lon="17.957833">
        <ele>47.6</ele>
        <time>2014-03-27T09:01:07Z</time>
      </trkpt>
      <trkpt lat="59.241077" lon="17.958049">
        <ele>47.5</ele>
        <time>2014-03-27T09:01:09Z</time>
      </trkpt>
      <trkpt lat="59.24111" lon="17.958287">
        <ele>47.3</ele>
        <time>2014-03-27T09:01:11Z</time>
      </trkpt>
      <trkpt lat="59.24112" lon="17.9584">
        <ele>47.3</ele>
        <time>2014-03-27T09:01:12Z</time>
      </trkpt>
      <trkpt lat="59.241174" lon="17.958992">
        <ele>47.6</ele>
        <time>2014-03-27T09:01:17Z</time>
      </trkpt>
      <trkpt lat="59.241187" lon="17.959102">
        <ele>47.9</ele>
        <time>2014-03-27T09:01:18Z</time>
      </trkpt>
      <trkpt lat="59.241201" lon="17.959206">
        <ele>48.1</ele>
        <time>2014-03-27T09:01:19Z</time>
      </trkpt>
      <trkpt lat="59.241217" lon="17.959305">
        <ele>48.3</ele>
        <time>2014-03-27T09:01:20Z</time>
      </trkpt>
      <trkpt lat="59.241223" lon="17.959402">
        <ele>48.6</ele>
        <time>2014-03-27T09:01:21Z</time>
      </trkpt>
      <trkpt lat="59.241227" lon="17.959596">
        <ele>49.2</ele>
        <time>2014-03-27T09:01:23Z</time>
      </trkpt>
      <trkpt lat="59.241239" lon="17.960107">
        <ele>50.9</ele>
        <time>2014-03-27T09:01:28Z</time>
      </trkpt>
      <trkpt lat="59.241222" lon="17.960407">
        <ele>52</ele>
        <time>2014-03-27T09:01:31Z</time>
      </trkpt>
      <trkpt lat="59.241204" lon="17.960747">
        <ele>52.5</ele>
        <time>2014-03-27T09:01:34Z</time>
      </trkpt>
      <trkpt lat="59.241212" lon="17.960998">
        <ele>52.8</ele>
        <time>2014-03-27T09:01:36Z</time>
      </trkpt>
      <trkpt lat="59.241222" lon="17.961371">
        <ele>53.2</ele>
        <time>2014-03-27T09:01:39Z</time>
      </trkpt>
      <trkpt lat="59.241238" lon="17.962063">
        <ele>54</ele>
        <time>2014-03-27T09:01:45Z</time>
      </trkpt>
      <trkpt lat="59.241235" lon="17.9623">
        <ele>54.3</ele>
        <time>2014-03-27T09:01:47Z</time>
      </trkpt>
      <trkpt lat="59.241252" lon="17.963013">
        <ele>55.1</ele>
        <time>2014-03-27T09:01:53Z</time>
      </trkpt>
      <trkpt lat="59.241252" lon="17.963128">
        <ele>55.2</ele>
        <time>2014-03-27T09:01:54Z</time>
      </trkpt>
      <trkpt lat="59.241255" lon="17.963247">
        <ele>55.4</ele>
        <time>2014-03-27T09:01:55Z</time>
      </trkpt>
      <trkpt lat="59.241265" lon="17.963674">
        <ele>55.8</ele>
        <time>2014-03-27T09:01:59Z</time>
      </trkpt>
      <trkpt lat="59.241271" lon="17.96413">
        <ele>54.9</ele>
        <time>2014-03-27T09:02:03Z</time>
      </trkpt>
      <trkpt lat="59.241279" lon="17.964244">
        <ele>54.6</ele>
        <time>2014-03-27T09:02:04Z</time>
      </trkpt>
      <trkpt lat="59.241309" lon="17.964598">
        <ele>53.6</ele>
        <time>2014-03-27T09:02:07Z</time>
      </trkpt>
      <trkpt lat="59.241309" lon="17.964832">
        <ele>53.1</ele>
        <time>2014-03-27T09:02:09Z</time>
      </trkpt>
      <trkpt lat="59.241325" lon="17.965674">
        <ele>51</ele>
        <time>2014-03-27T09:02:16Z</time>
      </trkpt>
      <trkpt lat="59.241342" lon="17.966094">
        <ele>49.9</ele>
        <time>2014-03-27T09:02:19Z</time>
      </trkpt>
      <trkpt lat="59.241342" lon="17.966238">
        <ele>49.6</ele>
        <time>2014-03-27T09:02:20Z</time>
      </trkpt>
      <trkpt lat="59.241343" lon="17.966381">
        <ele>49.2</ele>
        <time>2014-03-27T09:02:21Z</time>
      </trkpt>
      <trkpt lat="59.241339" lon="17.966525">
        <ele>48.9</ele>
        <time>2014-03-27T09:02:22Z</time>
      </trkpt>
      <trkpt lat="59.241335" lon="17.966663">
        <ele>48.6</ele>
        <time>2014-03-27T09:02:23Z</time>
      </trkpt>
      <trkpt lat="59.241296" lon="17.967317">
        <ele>47.4</ele>
        <time>2014-03-27T09:02:28Z</time>
      </trkpt>
      <trkpt lat="59.241288" lon="17.967446">
        <ele>47.3</ele>
        <time>2014-03-27T09:02:29Z</time>
      </trkpt>
      <trkpt lat="59.241274" lon="17.967576">
        <ele>47.3</ele>
        <time>2014-03-27T09:02:30Z</time>
      </trkpt>
      <trkpt lat="59.241263" lon="17.967712">
        <ele>47.2</ele>
        <time>2014-03-27T09:02:31Z</time>
      </trkpt>
      <trkpt lat="59.241252" lon="17.96785">
        <ele>47.1</ele>
        <time>2014-03-27T09:02:32Z</time>
      </trkpt>
      <trkpt lat="59.241232" lon="17.968104">
        <ele>47</ele>
        <time>2014-03-27T09:02:34Z</time>
      </trkpt>
      <trkpt lat="59.241225" lon="17.968232">
        <ele>46.9</ele>
        <time>2014-03-27T09:02:35Z</time>
      </trkpt>
      <trkpt lat="59.241219" lon="17.968358">
        <ele>46.8</ele>
        <time>2014-03-27T09:02:36Z</time>
      </trkpt>
      <trkpt lat="59.241211" lon="17.968487">
        <ele>46.7</ele>
        <time>2014-03-27T09:02:37Z</time>
      </trkpt>
      <trkpt lat="59.241203" lon="17.968613">
        <ele>46.6</ele>
        <time>2014-03-27T09:02:38Z</time>
      </trkpt>
      <trkpt lat="59.241194" lon="17.968876">
        <ele>46.1</ele>
        <time>2014-03-27T09:02:40Z</time>
      </trkpt>
      <trkpt lat="59.241215" lon="17.969103">
        <ele>45</ele>
        <time>2014-03-27T09:02:42Z</time>
      </trkpt>
      <trkpt lat="59.241266" lon="17.969286">
        <ele>44</ele>
        <time>2014-03-27T09:02:44Z</time>
      </trkpt>
      <trkpt lat="59.241322" lon="17.969474">
        <ele>43.2</ele>
        <time>2014-03-27T09:02:46Z</time>
      </trkpt>
      <trkpt lat="59.24132" lon="17.96957">
        <ele>42.9</ele>
        <time>2014-03-27T09:02:47Z</time>
      </trkpt>
      <trkpt lat="59.241272" lon="17.969834">
        <ele>42.1</ele>
        <time>2014-03-27T09:02:50Z</time>
      </trkpt>
      <trkpt lat="59.24123" lon="17.969913">
        <ele>42</ele>
        <time>2014-03-27T09:02:51Z</time>
      </trkpt>
      <trkpt lat="59.241185" lon="17.97">
        <ele>42</ele>
        <time>2014-03-27T09:02:52Z</time>
      </trkpt>
      <trkpt lat="59.241137" lon="17.970089">
        <ele>42</ele>
        <time>2014-03-27T09:02:53Z</time>
      </trkpt>
      <trkpt lat="59.241094" lon="17.97018">
        <ele>42</ele>
        <time>2014-03-27T09:02:54Z</time>
      </trkpt>
      <trkpt lat="59.240995" lon="17.970389">
        <ele>41.9</ele>
        <time>2014-03-27T09:02:56Z</time>
      </trkpt>
      <trkpt lat="59.240686" lon="17.970972">
        <ele>42.3</ele>
        <time>2014-03-27T09:03:02Z</time>
      </trkpt>
      <trkpt lat="59.240403" lon="17.971463">
        <ele>40.6</ele>
        <time>2014-03-27T09:03:08Z</time>
      </trkpt>
      <trkpt lat="59.240206" lon="17.971911">
        <ele>37.2</ele>
        <time>2014-03-27T09:03:13Z</time>
      </trkpt>
      <trkpt lat="59.240166" lon="17.972002">
        <ele>36.5</ele>
        <time>2014-03-27T09:03:14Z</time>
      </trkpt>
      <trkpt lat="59.240123" lon="17.972096">
        <ele>35.9</ele>
        <time>2014-03-27T09:03:15Z</time>
      </trkpt>
      <trkpt lat="59.240077" lon="17.972192">
        <ele>35.8</ele>
        <time>2014-03-27T09:03:16Z</time>
      </trkpt>
      <trkpt lat="59.240034" lon="17.972286">
        <ele>35.7</ele>
        <time>2014-03-27T09:03:17Z</time>
      </trkpt>
      <trkpt lat="59.239843" lon="17.97261">
        <ele>35.6</ele>
        <time>2014-03-27T09:03:21Z</time>
      </trkpt>
      <trkpt lat="59.239709" lon="17.972777">
        <ele>35.7</ele>
        <time>2014-03-27T09:03:24Z</time>
      </trkpt>
      <trkpt lat="59.239642" lon="17.97292">
        <ele>36</ele>
        <time>2014-03-27T09:03:26Z</time>
      </trkpt>
      <trkpt lat="59.239612" lon="17.973002">
        <ele>36.3</ele>
        <time>2014-03-27T09:03:27Z</time>
      </trkpt>
      <trkpt lat="59.239566" lon="17.973187">
        <ele>37</ele>
        <time>2014-03-27T09:03:29Z</time>
      </trkpt>
      <trkpt lat="59.239548" lon="17.973294">
        <ele>37.4</ele>
        <time>2014-03-27T09:03:30Z</time>
      </trkpt>
      <trkpt lat="59.239522" lon="17.973523">
        <ele>38.3</ele>
        <time>2014-03-27T09:03:32Z</time>
      </trkpt>
      <trkpt lat="59.239515" lon="17.973956">
        <ele>39.1</ele>
        <time>2014-03-27T09:03:35Z</time>
      </trkpt>
      <trkpt lat="59.239521" lon="17.974664">
        <ele>39</ele>
        <time>2014-03-27T09:03:41Z</time>
      </trkpt>
      <trkpt lat="59.239517" lon="17.975156">
        <ele>38.9</ele>
        <time>2014-03-27T09:03:45Z</time>
      </trkpt>
      <trkpt lat="59.239492" lon="17.975375">
        <ele>38.8</ele>
        <time>2014-03-27T09:03:47Z</time>
      </trkpt>
      <trkpt lat="59.239444" lon="17.975552">
        <ele>38.6</ele>
        <time>2014-03-27T09:03:49Z</time>
      </trkpt>
      <trkpt lat="59.239271" lon="17.975652">
        <ele>38.1</ele>
        <time>2014-03-27T09:03:51Z</time>
      </trkpt>
      <trkpt lat="59.239152" lon="17.975793">
        <ele>37.7</ele>
        <time>2014-03-27T09:03:53Z</time>
      </trkpt>
      <trkpt lat="59.238826" lon="17.976347">
        <ele>36.1</ele>
        <time>2014-03-27T09:03:59Z</time>
      </trkpt>
      <trkpt lat="59.238721" lon="17.976527">
        <ele>35.3</ele>
        <time>2014-03-27T09:04:01Z</time>
      </trkpt>
      <trkpt lat="59.238667" lon="17.976603">
        <ele>35.1</ele>
        <time>2014-03-27T09:04:02Z</time>
      </trkpt>
      <trkpt lat="59.238609" lon="17.976687">
        <ele>35</ele>
        <time>2014-03-27T09:04:03Z</time>
      </trkpt>
      <trkpt lat="59.23855" lon="17.976775">
        <ele>34.8</ele>
        <time>2014-03-27T09:04:04Z</time>
      </trkpt>
      <trkpt lat="59.238492" lon="17.976863">
        <ele>34.7</ele>
        <time>2014-03-27T09:04:05Z</time>
      </trkpt>
      <trkpt lat="59.238448" lon="17.976954">
        <ele>34.6</ele>
        <time>2014-03-27T09:04:06Z</time>
      </trkpt>
      <trkpt lat="59.238367" lon="17.977133">
        <ele>34.5</ele>
        <time>2014-03-27T09:04:08Z</time>
      </trkpt>
      <trkpt lat="59.238308" lon="17.977305">
        <ele>34.5</ele>
        <time>2014-03-27T09:04:10Z</time>
      </trkpt>
      <trkpt lat="59.23822" lon="17.977568">
        <ele>34.6</ele>
        <time>2014-03-27T09:04:13Z</time>
      </trkpt>
      <trkpt lat="59.238057" lon="17.978177">
        <ele>34.8</ele>
        <time>2014-03-27T09:04:20Z</time>
      </trkpt>
      <trkpt lat="59.237923" lon="17.978659">
        <ele>35</ele>
        <time>2014-03-27T09:04:26Z</time>
      </trkpt>
      <trkpt lat="59.237893" lon="17.978725">
        <ele>35</ele>
        <time>2014-03-27T09:04:27Z</time>
      </trkpt>
      <trkpt lat="59.237721" lon="17.978786">
        <ele>34.7</ele>
        <time>2014-03-27T09:04:30Z</time>
      </trkpt>
      <trkpt lat="59.237655" lon="17.97878">
        <ele>34.6</ele>
        <time>2014-03-27T09:04:31Z</time>
      </trkpt>
    </trkseg>
  </trk>
</gpx>